sensor_id;sensor_type;location;lat;lon;timestamp;P1;durP1;ratioP1;P2;durP2;ratioP2
12042;SDS011;6082;49.306;12.862;2022-08-21T00:00:03;20.37;;;12.00;;
12042;SDS011;6082;49.306;12.862;2022-08-21T00:02:34;15.63;;;10.60;;
12042;SDS011;6082;49.306;12.862;2022-08-21T00:05:00;19.77;;;12.47;;
12042;SDS011;6082;49.306;12.862;2022-08-21T00:07:26;13.73;;;10.23;;
12042;SDS011;6082;49.306;12.862;2022-08-21T00:09:52;15.00;;;9.63;;
12042;SDS011;6082;49.306;12.862;2022-08-21T00:12:18;17.47;;;11.57;;
12042;SDS011;6082;49.306;12.862;2022-08-21T00:14:47;18.17;;;12.17;;
12042;SDS011;6082;49.306;12.862;2022-08-21T00:17:13;14.50;;;9.77;;
12042;SDS011;6082;49.306;12.862;2022-08-21T00:19:39;17.80;;;11.30;;
12042;SDS011;6082;49.306;12.862;2022-08-21T00:22:33;17.17;;;11.47;;
12042;SDS011;6082;49.306;12.862;2022-08-21T00:25:03;16.27;;;10.40;;
12042;SDS011;6082;49.306;12.862;2022-08-21T00:27:31;17.13;;;11.03;;
12042;SDS011;6082;49.306;12.862;2022-08-21T00:29:57;20.13;;;11.23;;
12042;SDS011;6082;49.306;12.862;2022-08-21T00:32:24;18.40;;;10.77;;
12042;SDS011;6082;49.306;12.862;2022-08-21T00:34:51;18.17;;;11.67;;
12042;SDS011;6082;49.306;12.862;2022-08-21T00:37:17;21.80;;;12.57;;
12042;SDS011;6082;49.306;12.862;2022-08-21T00:39:43;16.40;;;10.93;;
12042;SDS011;6082;49.306;12.862;2022-08-21T00:42:09;19.20;;;11.27;;
12042;SDS011;6082;49.306;12.862;2022-08-21T00:44:39;17.50;;;11.57;;
12042;SDS011;6082;49.306;12.862;2022-08-21T00:47:06;22.40;;;11.97;;
12042;SDS011;6082;49.306;12.862;2022-08-21T00:49:33;18.53;;;11.90;;
12042;SDS011;6082;49.306;12.862;2022-08-21T00:51:59;18.87;;;11.50;;
12042;SDS011;6082;49.306;12.862;2022-08-21T00:54:26;19.10;;;11.20;;
12042;SDS011;6082;49.306;12.862;2022-08-21T00:56:56;15.70;;;10.53;;
12042;SDS011;6082;49.306;12.862;2022-08-21T00:59:25;15.17;;;11.03;;
12042;SDS011;6082;49.306;12.862;2022-08-21T01:01:52;20.27;;;11.33;;
12042;SDS011;6082;49.306;12.862;2022-08-21T01:04:19;16.60;;;11.13;;
12042;SDS011;6082;49.306;12.862;2022-08-21T01:06:45;20.27;;;11.87;;
12042;SDS011;6082;49.306;12.862;2022-08-21T01:09:11;20.13;;;11.77;;
12042;SDS011;6082;49.306;12.862;2022-08-21T01:11:38;14.60;;;9.87;;
12042;SDS011;6082;49.306;12.862;2022-08-21T01:14:04;16.07;;;11.53;;
12042;SDS011;6082;49.306;12.862;2022-08-21T01:16:30;15.60;;;9.93;;
12042;SDS011;6082;49.306;12.862;2022-08-21T01:18:57;17.67;;;11.93;;
12042;SDS011;6082;49.306;12.862;2022-08-21T01:21:25;18.67;;;12.23;;
12042;SDS011;6082;49.306;12.862;2022-08-21T01:23:53;19.03;;;12.00;;
12042;SDS011;6082;49.306;12.862;2022-08-21T01:26:21;18.57;;;12.43;;
12042;SDS011;6082;49.306;12.862;2022-08-21T01:29:01;19.37;;;12.03;;
12042;SDS011;6082;49.306;12.862;2022-08-21T01:31:40;20.00;;;11.97;;
12042;SDS011;6082;49.306;12.862;2022-08-21T01:34:06;21.50;;;12.30;;
12042;SDS011;6082;49.306;12.862;2022-08-21T01:36:32;18.87;;;11.77;;
12042;SDS011;6082;49.306;12.862;2022-08-21T01:38:59;17.57;;;11.43;;
12042;SDS011;6082;49.306;12.862;2022-08-21T01:41:25;18.17;;;11.07;;
12042;SDS011;6082;49.306;12.862;2022-08-21T01:43:54;15.33;;;9.83;;
12042;SDS011;6082;49.306;12.862;2022-08-21T01:46:19;15.53;;;10.77;;
12042;SDS011;6082;49.306;12.862;2022-08-21T01:48:45;17.57;;;11.17;;
12042;SDS011;6082;49.306;12.862;2022-08-21T01:51:11;16.83;;;11.03;;
12042;SDS011;6082;49.306;12.862;2022-08-21T01:53:37;15.27;;;8.93;;
12042;SDS011;6082;49.306;12.862;2022-08-21T01:56:04;14.83;;;8.97;;
12042;SDS011;6082;49.306;12.862;2022-08-21T01:58:32;13.43;;;8.10;;
12042;SDS011;6082;49.306;12.862;2022-08-21T02:00:58;14.90;;;9.27;;
12042;SDS011;6082;49.306;12.862;2022-08-21T02:03:26;12.97;;;8.17;;
12042;SDS011;6082;49.306;12.862;2022-08-21T02:05:53;12.67;;;7.83;;
12042;SDS011;6082;49.306;12.862;2022-08-21T02:08:19;11.60;;;7.97;;
12042;SDS011;6082;49.306;12.862;2022-08-21T02:10:48;15.13;;;9.33;;
12042;SDS011;6082;49.306;12.862;2022-08-21T02:13:14;11.80;;;7.97;;
12042;SDS011;6082;49.306;12.862;2022-08-21T02:15:41;12.87;;;8.20;;
12042;SDS011;6082;49.306;12.862;2022-08-21T02:18:07;14.00;;;8.37;;
12042;SDS011;6082;49.306;12.862;2022-08-21T02:20:34;14.93;;;8.47;;
12042;SDS011;6082;49.306;12.862;2022-08-21T02:23:03;13.70;;;8.63;;
12042;SDS011;6082;49.306;12.862;2022-08-21T02:25:30;13.90;;;9.23;;
12042;SDS011;6082;49.306;12.862;2022-08-21T02:27:56;12.20;;;7.37;;
12042;SDS011;6082;49.306;12.862;2022-08-21T02:30:26;11.93;;;7.90;;
12042;SDS011;6082;49.306;12.862;2022-08-21T02:32:54;10.87;;;7.40;;
12042;SDS011;6082;49.306;12.862;2022-08-21T02:35:20;14.20;;;9.03;;
12042;SDS011;6082;49.306;12.862;2022-08-21T02:37:46;10.87;;;7.33;;
12042;SDS011;6082;49.306;12.862;2022-08-21T02:40:24;10.97;;;7.13;;
12042;SDS011;6082;49.306;12.862;2022-08-21T02:42:52;14.83;;;8.23;;
12042;SDS011;6082;49.306;12.862;2022-08-21T02:45:18;11.50;;;7.73;;
12042;SDS011;6082;49.306;12.862;2022-08-21T02:48:27;10.27;;;7.20;;
12042;SDS011;6082;49.306;12.862;2022-08-21T02:50:36;12.23;;;7.97;;
12042;SDS011;6082;49.306;12.862;2022-08-21T02:53:04;12.83;;;8.50;;
12042;SDS011;6082;49.306;12.862;2022-08-21T02:55:32;11.00;;;7.70;;
12042;SDS011;6082;49.306;12.862;2022-08-21T02:57:59;12.50;;;8.17;;
12042;SDS011;6082;49.306;12.862;2022-08-21T03:00:27;13.23;;;8.20;;
12042;SDS011;6082;49.306;12.862;2022-08-21T03:02:54;13.07;;;8.10;;
12042;SDS011;6082;49.306;12.862;2022-08-21T03:05:21;13.90;;;8.70;;
12042;SDS011;6082;49.306;12.862;2022-08-21T03:07:47;13.70;;;8.23;;
12042;SDS011;6082;49.306;12.862;2022-08-21T03:10:13;11.37;;;7.97;;
12042;SDS011;6082;49.306;12.862;2022-08-21T03:12:40;12.47;;;7.77;;
12042;SDS011;6082;49.306;12.862;2022-08-21T03:15:07;10.73;;;7.20;;
12042;SDS011;6082;49.306;12.862;2022-08-21T03:17:35;11.10;;;7.27;;
12042;SDS011;6082;49.306;12.862;2022-08-21T03:20:02;13.43;;;8.13;;
12042;SDS011;6082;49.306;12.862;2022-08-21T03:22:31;12.13;;;6.87;;
12042;SDS011;6082;49.306;12.862;2022-08-21T03:24:57;12.87;;;8.23;;
12042;SDS011;6082;49.306;12.862;2022-08-21T03:27:24;10.33;;;6.47;;
12042;SDS011;6082;49.306;12.862;2022-08-21T03:29:52;12.17;;;6.70;;
12042;SDS011;6082;49.306;12.862;2022-08-21T03:32:18;10.27;;;6.83;;
12042;SDS011;6082;49.306;12.862;2022-08-21T03:34:45;12.37;;;8.07;;
12042;SDS011;6082;49.306;12.862;2022-08-21T03:37:11;9.83;;;7.17;;
12042;SDS011;6082;49.306;12.862;2022-08-21T03:39:38;10.73;;;6.90;;
12042;SDS011;6082;49.306;12.862;2022-08-21T03:42:04;12.23;;;7.77;;
12042;SDS011;6082;49.306;12.862;2022-08-21T03:44:31;8.40;;;6.00;;
12042;SDS011;6082;49.306;12.862;2022-08-21T03:46:57;9.90;;;6.60;;
12042;SDS011;6082;49.306;12.862;2022-08-21T03:49:23;11.03;;;6.30;;
12042;SDS011;6082;49.306;12.862;2022-08-21T03:51:50;11.10;;;7.20;;
12042;SDS011;6082;49.306;12.862;2022-08-21T03:54:16;10.10;;;6.47;;
12042;SDS011;6082;49.306;12.862;2022-08-21T03:56:42;10.73;;;7.13;;
12042;SDS011;6082;49.306;12.862;2022-08-21T03:59:08;11.90;;;8.47;;
12042;SDS011;6082;49.306;12.862;2022-08-21T04:01:35;13.47;;;8.17;;
12042;SDS011;6082;49.306;12.862;2022-08-21T04:04:01;11.27;;;7.70;;
12042;SDS011;6082;49.306;12.862;2022-08-21T04:06:28;14.43;;;8.83;;
12042;SDS011;6082;49.306;12.862;2022-08-21T04:08:54;14.40;;;8.80;;
12042;SDS011;6082;49.306;12.862;2022-08-21T04:11:20;12.63;;;8.03;;
12042;SDS011;6082;49.306;12.862;2022-08-21T04:13:46;14.37;;;9.23;;
12042;SDS011;6082;49.306;12.862;2022-08-21T04:16:13;15.37;;;8.03;;
12042;SDS011;6082;49.306;12.862;2022-08-21T04:18:39;17.53;;;10.37;;
12042;SDS011;6082;49.306;12.862;2022-08-21T04:21:05;16.10;;;10.10;;
12042;SDS011;6082;49.306;12.862;2022-08-21T04:23:35;16.50;;;10.10;;
12042;SDS011;6082;49.306;12.862;2022-08-21T04:26:04;14.73;;;8.67;;
12042;SDS011;6082;49.306;12.862;2022-08-21T04:28:31;13.93;;;9.10;;
12042;SDS011;6082;49.306;12.862;2022-08-21T04:30:57;16.57;;;10.60;;
12042;SDS011;6082;49.306;12.862;2022-08-21T04:33:22;12.90;;;8.90;;
12042;SDS011;6082;49.306;12.862;2022-08-21T04:35:49;15.80;;;8.97;;
12042;SDS011;6082;49.306;12.862;2022-08-21T04:38:15;13.43;;;9.00;;
12042;SDS011;6082;49.306;12.862;2022-08-21T04:40:41;17.27;;;10.70;;
12042;SDS011;6082;49.306;12.862;2022-08-21T04:43:08;15.53;;;9.23;;
12042;SDS011;6082;49.306;12.862;2022-08-21T04:48:09;13.00;;;8.73;;
12042;SDS011;6082;49.306;12.862;2022-08-21T04:50:38;15.30;;;8.80;;
12042;SDS011;6082;49.306;12.862;2022-08-21T04:56:25;16.80;;;10.73;;
12042;SDS011;6082;49.306;12.862;2022-08-21T04:58:54;14.47;;;8.40;;
12042;SDS011;6082;49.306;12.862;2022-08-21T05:01:22;16.03;;;10.17;;
12042;SDS011;6082;49.306;12.862;2022-08-21T05:03:50;13.43;;;8.80;;
12042;SDS011;6082;49.306;12.862;2022-08-21T05:06:20;17.27;;;10.00;;
12042;SDS011;6082;49.306;12.862;2022-08-21T05:08:49;19.23;;;10.90;;
12042;SDS011;6082;49.306;12.862;2022-08-21T05:11:18;18.03;;;10.57;;
12042;SDS011;6082;49.306;12.862;2022-08-21T05:13:45;14.67;;;8.83;;
12042;SDS011;6082;49.306;12.862;2022-08-21T05:16:11;14.60;;;8.77;;
12042;SDS011;6082;49.306;12.862;2022-08-21T05:18:37;15.10;;;9.73;;
12042;SDS011;6082;49.306;12.862;2022-08-21T05:21:03;15.90;;;9.10;;
12042;SDS011;6082;49.306;12.862;2022-08-21T05:23:29;12.93;;;7.27;;
12042;SDS011;6082;49.306;12.862;2022-08-21T05:25:55;13.70;;;8.40;;
12042;SDS011;6082;49.306;12.862;2022-08-21T05:28:22;14.13;;;8.47;;
12042;SDS011;6082;49.306;12.862;2022-08-21T05:30:56;15.80;;;9.57;;
12042;SDS011;6082;49.306;12.862;2022-08-21T05:33:22;17.13;;;10.43;;
12042;SDS011;6082;49.306;12.862;2022-08-21T05:35:51;13.60;;;8.63;;
12042;SDS011;6082;49.306;12.862;2022-08-21T05:38:18;13.97;;;7.97;;
12042;SDS011;6082;49.306;12.862;2022-08-21T05:40:45;13.13;;;7.60;;
12042;SDS011;6082;49.306;12.862;2022-08-21T05:43:11;15.17;;;8.97;;
12042;SDS011;6082;49.306;12.862;2022-08-21T05:45:40;12.93;;;8.53;;
12042;SDS011;6082;49.306;12.862;2022-08-21T05:48:07;17.87;;;10.57;;
12042;SDS011;6082;49.306;12.862;2022-08-21T05:50:34;16.97;;;9.67;;
12042;SDS011;6082;49.306;12.862;2022-08-21T05:53:06;12.90;;;7.57;;
12042;SDS011;6082;49.306;12.862;2022-08-21T05:55:31;16.67;;;9.60;;
12042;SDS011;6082;49.306;12.862;2022-08-21T05:57:57;16.37;;;10.13;;
12042;SDS011;6082;49.306;12.862;2022-08-21T06:00:23;14.13;;;9.67;;
12042;SDS011;6082;49.306;12.862;2022-08-21T06:02:49;16.47;;;9.90;;
12042;SDS011;6082;49.306;12.862;2022-08-21T06:05:15;17.70;;;10.77;;
12042;SDS011;6082;49.306;12.862;2022-08-21T06:07:42;18.00;;;10.57;;
12042;SDS011;6082;49.306;12.862;2022-08-21T06:10:08;15.43;;;9.17;;
12042;SDS011;6082;49.306;12.862;2022-08-21T06:12:34;20.87;;;11.00;;
12042;SDS011;6082;49.306;12.862;2022-08-21T06:15:00;16.97;;;9.83;;
12042;SDS011;6082;49.306;12.862;2022-08-21T06:17:25;18.00;;;11.33;;
12042;SDS011;6082;49.306;12.862;2022-08-21T06:19:52;15.63;;;10.20;;
12042;SDS011;6082;49.306;12.862;2022-08-21T06:22:19;19.50;;;11.17;;
12042;SDS011;6082;49.306;12.862;2022-08-21T06:24:45;20.03;;;11.97;;
12042;SDS011;6082;49.306;12.862;2022-08-21T06:27:11;18.10;;;10.30;;
12042;SDS011;6082;49.306;12.862;2022-08-21T06:29:37;17.13;;;10.73;;
12042;SDS011;6082;49.306;12.862;2022-08-21T06:32:03;17.07;;;11.10;;
12042;SDS011;6082;49.306;12.862;2022-08-21T06:34:32;21.07;;;11.67;;
12042;SDS011;6082;49.306;12.862;2022-08-21T06:37:02;18.13;;;10.30;;
12042;SDS011;6082;49.306;12.862;2022-08-21T06:39:29;16.50;;;10.40;;
12042;SDS011;6082;49.306;12.862;2022-08-21T06:41:54;19.60;;;11.33;;
12042;SDS011;6082;49.306;12.862;2022-08-21T06:44:20;18.03;;;11.07;;
12042;SDS011;6082;49.306;12.862;2022-08-21T06:46:46;14.80;;;9.27;;
12042;SDS011;6082;49.306;12.862;2022-08-21T06:49:12;18.57;;;11.60;;
12042;SDS011;6082;49.306;12.862;2022-08-21T06:51:38;17.17;;;10.07;;
12042;SDS011;6082;49.306;12.862;2022-08-21T06:54:04;17.43;;;10.20;;
12042;SDS011;6082;49.306;12.862;2022-08-21T06:56:30;14.90;;;9.83;;
12042;SDS011;6082;49.306;12.862;2022-08-21T06:58:58;16.50;;;10.50;;
12042;SDS011;6082;49.306;12.862;2022-08-21T07:01:25;17.90;;;11.17;;
12042;SDS011;6082;49.306;12.862;2022-08-21T07:03:51;16.93;;;9.90;;
12042;SDS011;6082;49.306;12.862;2022-08-21T07:06:17;18.33;;;12.10;;
12042;SDS011;6082;49.306;12.862;2022-08-21T07:08:43;17.23;;;11.03;;
12042;SDS011;6082;49.306;12.862;2022-08-21T07:11:11;16.07;;;10.27;;
12042;SDS011;6082;49.306;12.862;2022-08-21T07:13:42;18.13;;;10.63;;
12042;SDS011;6082;49.306;12.862;2022-08-21T07:16:07;19.20;;;11.17;;
12042;SDS011;6082;49.306;12.862;2022-08-21T07:18:33;16.83;;;10.30;;
12042;SDS011;6082;49.306;12.862;2022-08-21T07:21:00;17.60;;;11.27;;
12042;SDS011;6082;49.306;12.862;2022-08-21T07:23:29;18.23;;;10.93;;
12042;SDS011;6082;49.306;12.862;2022-08-21T07:25:58;16.37;;;10.43;;
12042;SDS011;6082;49.306;12.862;2022-08-21T07:28:27;18.87;;;12.03;;
12042;SDS011;6082;49.306;12.862;2022-08-21T07:30:54;16.40;;;10.50;;
12042;SDS011;6082;49.306;12.862;2022-08-21T07:33:21;17.13;;;10.67;;
12042;SDS011;6082;49.306;12.862;2022-08-21T07:35:48;20.27;;;11.57;;
12042;SDS011;6082;49.306;12.862;2022-08-21T07:38:14;14.83;;;10.20;;
12042;SDS011;6082;49.306;12.862;2022-08-21T07:40:40;15.90;;;10.83;;
12042;SDS011;6082;49.306;12.862;2022-08-21T07:43:06;15.10;;;10.43;;
12042;SDS011;6082;49.306;12.862;2022-08-21T07:45:32;17.40;;;10.57;;
12042;SDS011;6082;49.306;12.862;2022-08-21T07:47:58;16.00;;;10.57;;
12042;SDS011;6082;49.306;12.862;2022-08-21T07:50:24;16.00;;;11.20;;
12042;SDS011;6082;49.306;12.862;2022-08-21T07:52:50;16.27;;;10.90;;
12042;SDS011;6082;49.306;12.862;2022-08-21T07:55:17;16.17;;;10.10;;
12042;SDS011;6082;49.306;12.862;2022-08-21T07:57:45;14.80;;;10.10;;
12042;SDS011;6082;49.306;12.862;2022-08-21T08:00:12;15.60;;;9.70;;
12042;SDS011;6082;49.306;12.862;2022-08-21T08:02:43;18.60;;;11.10;;
12042;SDS011;6082;49.306;12.862;2022-08-21T08:05:12;14.47;;;9.97;;
12042;SDS011;6082;49.306;12.862;2022-08-21T08:07:38;16.70;;;11.13;;
12042;SDS011;6082;49.306;12.862;2022-08-21T08:10:04;15.70;;;10.50;;
12042;SDS011;6082;49.306;12.862;2022-08-21T08:12:33;13.50;;;8.90;;
12042;SDS011;6082;49.306;12.862;2022-08-21T08:15:00;14.00;;;9.50;;
12042;SDS011;6082;49.306;12.862;2022-08-21T08:17:26;15.13;;;9.90;;
12042;SDS011;6082;49.306;12.862;2022-08-21T08:19:52;14.80;;;9.83;;
12042;SDS011;6082;49.306;12.862;2022-08-21T08:22:19;16.97;;;10.83;;
12042;SDS011;6082;49.306;12.862;2022-08-21T08:24:48;14.17;;;9.07;;
12042;SDS011;6082;49.306;12.862;2022-08-21T08:27:14;12.73;;;8.70;;
12042;SDS011;6082;49.306;12.862;2022-08-21T08:29:41;13.73;;;8.90;;
12042;SDS011;6082;49.306;12.862;2022-08-21T08:32:07;14.00;;;9.30;;
12042;SDS011;6082;49.306;12.862;2022-08-21T08:34:37;11.33;;;7.73;;
12042;SDS011;6082;49.306;12.862;2022-08-21T08:37:04;16.07;;;9.00;;
12042;SDS011;6082;49.306;12.862;2022-08-21T08:39:30;14.00;;;9.30;;
12042;SDS011;6082;49.306;12.862;2022-08-21T08:42:08;12.87;;;8.77;;
12042;SDS011;6082;49.306;12.862;2022-08-21T08:44:43;11.97;;;8.13;;
12042;SDS011;6082;49.306;12.862;2022-08-21T08:47:13;10.73;;;8.30;;
12042;SDS011;6082;49.306;12.862;2022-08-21T08:55:08;13.60;;;8.70;;
12042;SDS011;6082;49.306;12.862;2022-08-21T08:57:37;12.07;;;8.30;;
12042;SDS011;6082;49.306;12.862;2022-08-21T09:00:10;13.50;;;9.30;;
12042;SDS011;6082;49.306;12.862;2022-08-21T09:02:38;13.40;;;8.53;;
12042;SDS011;6082;49.306;12.862;2022-08-21T09:05:06;13.80;;;8.60;;
12042;SDS011;6082;49.306;12.862;2022-08-21T09:10:35;13.10;;;8.13;;
12042;SDS011;6082;49.306;12.862;2022-08-21T09:22:02;13.67;;;9.00;;
12042;SDS011;6082;49.306;12.862;2022-08-21T09:24:40;13.00;;;8.17;;
12042;SDS011;6082;49.306;12.862;2022-08-21T09:27:11;10.83;;;7.87;;
12042;SDS011;6082;49.306;12.862;2022-08-21T09:29:41;11.43;;;7.63;;
12042;SDS011;6082;49.306;12.862;2022-08-21T09:35:15;10.83;;;7.43;;
12042;SDS011;6082;49.306;12.862;2022-08-21T09:37:52;10.57;;;7.87;;
12042;SDS011;6082;49.306;12.862;2022-08-21T09:43:06;11.10;;;7.50;;
12042;SDS011;6082;49.306;12.862;2022-08-21T09:45:33;9.17;;;7.40;;
12042;SDS011;6082;49.306;12.862;2022-08-21T09:51:49;12.93;;;7.90;;
12042;SDS011;6082;49.306;12.862;2022-08-21T09:54:20;11.17;;;7.60;;
12042;SDS011;6082;49.306;12.862;2022-08-21T09:56:57;9.40;;;7.23;;
12042;SDS011;6082;49.306;12.862;2022-08-21T09:59:45;10.40;;;7.53;;
12042;SDS011;6082;49.306;12.862;2022-08-21T10:02:22;10.30;;;7.60;;
12042;SDS011;6082;49.306;12.862;2022-08-21T10:04:49;11.03;;;7.50;;
12042;SDS011;6082;49.306;12.862;2022-08-21T10:07:23;11.20;;;7.00;;
12042;SDS011;6082;49.306;12.862;2022-08-21T10:13:02;10.13;;;7.57;;
12042;SDS011;6082;49.306;12.862;2022-08-21T10:23:54;9.83;;;6.90;;
12042;SDS011;6082;49.306;12.862;2022-08-21T10:32:27;7.20;;;5.63;;
12042;SDS011;6082;49.306;12.862;2022-08-21T10:42:59;13.20;;;7.50;;
12042;SDS011;6082;49.306;12.862;2022-08-21T10:45:36;10.73;;;7.47;;
12042;SDS011;6082;49.306;12.862;2022-08-21T10:48:07;11.17;;;7.30;;
12042;SDS011;6082;49.306;12.862;2022-08-21T10:50:43;13.73;;;8.10;;
12042;SDS011;6082;49.306;12.862;2022-08-21T10:53:15;10.70;;;7.33;;
12042;SDS011;6082;49.306;12.862;2022-08-21T10:58:21;12.43;;;8.30;;
12042;SDS011;6082;49.306;12.862;2022-08-21T11:00:57;11.43;;;8.00;;
12042;SDS011;6082;49.306;12.862;2022-08-21T11:03:33;11.00;;;7.70;;
12042;SDS011;6082;49.306;12.862;2022-08-21T11:06:15;10.10;;;7.13;;
12042;SDS011;6082;49.306;12.862;2022-08-21T11:08:50;10.17;;;7.20;;
12042;SDS011;6082;49.306;12.862;2022-08-21T11:14:20;9.20;;;7.20;;
12042;SDS011;6082;49.306;12.862;2022-08-21T11:17:02;11.37;;;6.73;;
12042;SDS011;6082;49.306;12.862;2022-08-21T11:19:39;9.77;;;7.03;;
12042;SDS011;6082;49.306;12.862;2022-08-21T11:22:10;8.50;;;6.47;;
12042;SDS011;6082;49.306;12.862;2022-08-21T11:25:17;10.00;;;6.67;;
12042;SDS011;6082;49.306;12.862;2022-08-21T11:30:51;8.93;;;6.67;;
12042;SDS011;6082;49.306;12.862;2022-08-21T11:33:31;9.53;;;6.27;;
12042;SDS011;6082;49.306;12.862;2022-08-21T11:38:42;6.90;;;5.33;;
12042;SDS011;6082;49.306;12.862;2022-08-21T11:41:23;7.20;;;5.50;;
12042;SDS011;6082;49.306;12.862;2022-08-21T11:46:54;6.67;;;5.13;;
12042;SDS011;6082;49.306;12.862;2022-08-21T11:52:40;7.27;;;5.50;;
12042;SDS011;6082;49.306;12.862;2022-08-21T11:55:19;8.00;;;5.53;;
12042;SDS011;6082;49.306;12.862;2022-08-21T11:58:00;8.53;;;5.73;;
12042;SDS011;6082;49.306;12.862;2022-08-21T12:00:41;6.80;;;5.40;;
12042;SDS011;6082;49.306;12.862;2022-08-21T12:05:52;6.33;;;5.33;;
12042;SDS011;6082;49.306;12.862;2022-08-21T12:08:29;6.70;;;5.47;;
12042;SDS011;6082;49.306;12.862;2022-08-21T12:11:04;6.20;;;4.90;;
12042;SDS011;6082;49.306;12.862;2022-08-21T12:16:37;6.87;;;5.20;;
12042;SDS011;6082;49.306;12.862;2022-08-21T12:19:11;7.17;;;5.13;;
12042;SDS011;6082;49.306;12.862;2022-08-21T12:21:51;6.70;;;5.13;;
12042;SDS011;6082;49.306;12.862;2022-08-21T12:26:53;5.73;;;5.07;;
12042;SDS011;6082;49.306;12.862;2022-08-21T12:29:22;5.93;;;5.00;;
12042;SDS011;6082;49.306;12.862;2022-08-21T12:37:11;6.80;;;5.57;;
12042;SDS011;6082;49.306;12.862;2022-08-21T12:39:46;6.53;;;5.37;;
12042;SDS011;6082;49.306;12.862;2022-08-21T12:44:56;6.60;;;4.80;;
12042;SDS011;6082;49.306;12.862;2022-08-21T12:47:43;6.50;;;5.00;;
12042;SDS011;6082;49.306;12.862;2022-08-21T12:53:21;6.17;;;4.80;;
12042;SDS011;6082;49.306;12.862;2022-08-21T12:55:48;5.50;;;4.60;;
12042;SDS011;6082;49.306;12.862;2022-08-21T12:58:18;6.93;;;4.90;;
12042;SDS011;6082;49.306;12.862;2022-08-21T13:00:52;6.17;;;4.60;;
12042;SDS011;6082;49.306;12.862;2022-08-21T13:03:25;7.33;;;5.07;;
12042;SDS011;6082;49.306;12.862;2022-08-21T13:05:52;6.00;;;5.10;;
12042;SDS011;6082;49.306;12.862;2022-08-21T13:08:20;6.30;;;4.97;;
12042;SDS011;6082;49.306;12.862;2022-08-21T13:10:49;8.03;;;4.90;;
12042;SDS011;6082;49.306;12.862;2022-08-21T13:13:22;7.13;;;5.10;;
12042;SDS011;6082;49.306;12.862;2022-08-21T13:15:56;5.93;;;4.70;;
12042;SDS011;6082;49.306;12.862;2022-08-21T13:18:29;5.43;;;4.50;;
12042;SDS011;6082;49.306;12.862;2022-08-21T13:21:10;6.10;;;4.77;;
12042;SDS011;6082;49.306;12.862;2022-08-21T13:23:37;5.77;;;4.50;;
12042;SDS011;6082;49.306;12.862;2022-08-21T13:26:20;5.27;;;4.37;;
12042;SDS011;6082;49.306;12.862;2022-08-21T13:28:47;7.00;;;4.50;;
12042;SDS011;6082;49.306;12.862;2022-08-21T13:31:18;4.97;;;3.90;;
12042;SDS011;6082;49.306;12.862;2022-08-21T13:33:49;6.27;;;4.63;;
12042;SDS011;6082;49.306;12.862;2022-08-21T13:36:26;5.97;;;4.60;;
12042;SDS011;6082;49.306;12.862;2022-08-21T13:39:02;5.37;;;4.33;;
12042;SDS011;6082;49.306;12.862;2022-08-21T13:41:31;4.93;;;3.80;;
12042;SDS011;6082;49.306;12.862;2022-08-21T13:46:51;3.77;;;3.23;;
12042;SDS011;6082;49.306;12.862;2022-08-21T13:49:19;4.70;;;4.00;;
12042;SDS011;6082;49.306;12.862;2022-08-21T13:51:48;4.27;;;3.87;;
12042;SDS011;6082;49.306;12.862;2022-08-21T13:54:37;4.97;;;3.73;;
12042;SDS011;6082;49.306;12.862;2022-08-21T13:57:15;4.43;;;4.03;;
12042;SDS011;6082;49.306;12.862;2022-08-21T13:59:51;5.33;;;4.00;;
12042;SDS011;6082;49.306;12.862;2022-08-21T14:02:21;4.73;;;3.90;;
12042;SDS011;6082;49.306;12.862;2022-08-21T14:07:30;4.70;;;3.80;;
12042;SDS011;6082;49.306;12.862;2022-08-21T14:10:08;4.53;;;3.87;;
12042;SDS011;6082;49.306;12.862;2022-08-21T14:12:50;4.20;;;3.73;;
12042;SDS011;6082;49.306;12.862;2022-08-21T14:15:22;3.63;;;3.17;;
12042;SDS011;6082;49.306;12.862;2022-08-21T14:17:50;4.37;;;3.57;;
12042;SDS011;6082;49.306;12.862;2022-08-21T14:20:33;4.63;;;3.63;;
12042;SDS011;6082;49.306;12.862;2022-08-21T14:23:00;3.70;;;3.30;;
12042;SDS011;6082;49.306;12.862;2022-08-21T14:25:28;3.40;;;3.10;;
12042;SDS011;6082;49.306;12.862;2022-08-21T14:28:11;4.17;;;3.30;;
12042;SDS011;6082;49.306;12.862;2022-08-21T14:30:48;4.07;;;3.23;;
12042;SDS011;6082;49.306;12.862;2022-08-21T14:33:19;3.70;;;3.07;;
12042;SDS011;6082;49.306;12.862;2022-08-21T14:35:52;5.43;;;3.33;;
12042;SDS011;6082;49.306;12.862;2022-08-21T14:38:19;5.40;;;3.47;;
12042;SDS011;6082;49.306;12.862;2022-08-21T14:40:47;3.40;;;3.10;;
12042;SDS011;6082;49.306;12.862;2022-08-21T14:43:16;4.43;;;3.40;;
12042;SDS011;6082;49.306;12.862;2022-08-21T14:45:44;4.07;;;3.07;;
12042;SDS011;6082;49.306;12.862;2022-08-21T14:48:10;3.90;;;3.10;;
12042;SDS011;6082;49.306;12.862;2022-08-21T14:50:36;4.60;;;3.43;;
12042;SDS011;6082;49.306;12.862;2022-08-21T14:53:03;4.07;;;3.17;;
12042;SDS011;6082;49.306;12.862;2022-08-21T14:55:29;3.67;;;3.03;;
12042;SDS011;6082;49.306;12.862;2022-08-21T14:58:16;3.90;;;2.63;;
12042;SDS011;6082;49.306;12.862;2022-08-21T15:00:42;3.87;;;3.00;;
12042;SDS011;6082;49.306;12.862;2022-08-21T15:03:09;3.87;;;3.03;;
12042;SDS011;6082;49.306;12.862;2022-08-21T15:05:35;3.07;;;2.73;;
12042;SDS011;6082;49.306;12.862;2022-08-21T15:08:00;3.57;;;3.20;;
12042;SDS011;6082;49.306;12.862;2022-08-21T15:10:27;3.93;;;3.17;;
12042;SDS011;6082;49.306;12.862;2022-08-21T15:12:54;3.17;;;2.80;;
12042;SDS011;6082;49.306;12.862;2022-08-21T15:15:20;3.73;;;3.33;;
12042;SDS011;6082;49.306;12.862;2022-08-21T15:17:46;3.90;;;3.20;;
12042;SDS011;6082;49.306;12.862;2022-08-21T15:20:12;3.77;;;2.90;;
12042;SDS011;6082;49.306;12.862;2022-08-21T15:22:38;3.60;;;3.17;;
12042;SDS011;6082;49.306;12.862;2022-08-21T15:25:04;3.07;;;2.77;;
12042;SDS011;6082;49.306;12.862;2022-08-21T15:27:30;4.43;;;3.40;;
12042;SDS011;6082;49.306;12.862;2022-08-21T15:29:57;4.30;;;2.93;;
12042;SDS011;6082;49.306;12.862;2022-08-21T15:32:26;3.47;;;2.80;;
12042;SDS011;6082;49.306;12.862;2022-08-21T15:34:54;3.73;;;3.20;;
12042;SDS011;6082;49.306;12.862;2022-08-21T15:37:21;3.77;;;3.20;;
12042;SDS011;6082;49.306;12.862;2022-08-21T15:39:48;3.30;;;3.00;;
12042;SDS011;6082;49.306;12.862;2022-08-21T15:42:15;3.53;;;3.17;;
12042;SDS011;6082;49.306;12.862;2022-08-21T15:44:41;3.73;;;3.10;;
12042;SDS011;6082;49.306;12.862;2022-08-21T15:47:09;4.27;;;3.17;;
12042;SDS011;6082;49.306;12.862;2022-08-21T15:49:39;4.37;;;3.57;;
12042;SDS011;6082;49.306;12.862;2022-08-21T15:52:07;4.60;;;3.73;;
12042;SDS011;6082;49.306;12.862;2022-08-21T15:54:33;4.27;;;3.57;;
12042;SDS011;6082;49.306;12.862;2022-08-21T15:56:59;3.30;;;3.00;;
12042;SDS011;6082;49.306;12.862;2022-08-21T15:59:25;3.77;;;3.17;;
12042;SDS011;6082;49.306;12.862;2022-08-21T16:01:52;4.00;;;3.33;;
12042;SDS011;6082;49.306;12.862;2022-08-21T16:04:25;4.20;;;3.40;;
12042;SDS011;6082;49.306;12.862;2022-08-21T16:06:52;4.07;;;3.23;;
12042;SDS011;6082;49.306;12.862;2022-08-21T16:09:19;3.77;;;3.17;;
12042;SDS011;6082;49.306;12.862;2022-08-21T16:11:44;3.97;;;3.57;;
12042;SDS011;6082;49.306;12.862;2022-08-21T16:14:12;7.63;;;3.47;;
12042;SDS011;6082;49.306;12.862;2022-08-21T16:16:39;3.53;;;2.90;;
12042;SDS011;6082;49.306;12.862;2022-08-21T16:19:05;3.83;;;3.07;;
12042;SDS011;6082;49.306;12.862;2022-08-21T16:21:32;4.37;;;3.20;;
12042;SDS011;6082;49.306;12.862;2022-08-21T16:23:58;3.47;;;3.10;;
12042;SDS011;6082;49.306;12.862;2022-08-21T16:26:24;4.47;;;3.17;;